sensor_id;sensor_type;location;lat;lon;timestamp;pressure;altitude;pressure_sealevel;temperature;humidity
3590;BME280;1809;48.470;9.226;2023-02-22T00:00:15;104731.94;;;3.87;100.00
3590;BME280;1809;48.470;9.226;2023-02-22T00:02:44;104718.09;;;3.79;100.00
3590;BME280;1809;48.470;9.226;2023-02-22T00:05:09;105407.25;;;3.85;100.00
3590;BME280;1809;48.470;9.226;2023-02-22T00:07:34;105412.47;;;3.88;100.00
3590;BME280;1809;48.470;9.226;2023-02-22T00:10:00;105056.56;;;3.78;100.00
3590;BME280;1809;48.470;9.226;2023-02-22T00:12:25;105722.19;;;3.71;100.00
3590;BME280;1809;48.470;9.226;2023-02-22T00:14:53;107078.16;;;3.70;100.00
3590;BME280;1809;48.470;9.226;2023-02-22T00:17:18;108447.16;;;3.76;100.00
3590;BME280;1809;48.470;9.226;2023-02-22T00:19:47;109825.13;;;3.87;100.00
3590;BME280;1809;48.470;9.226;2023-02-22T00:22:12;109827.84;;;3.88;100.00
3590;BME280;1809;48.470;9.226;2023-02-22T00:24:38;109139.16;;;3.83;100.00
3590;BME280;1809;48.470;9.226;2023-02-22T00:27:03;109134.66;;;3.80;100.00
3590;BME280;1809;48.470;9.226;2023-02-22T00:29:28;109137.38;;;3.82;100.00
3590;BME280;1809;48.470;9.226;2023-02-22T00:31:54;109813.28;;;3.80;100.00
3590;BME280;1809;48.470;9.226;2023-02-22T00:34:20;110155.88;;;3.82;100.00
3590;BME280;1809;48.470;9.226;2023-02-22T00:36:47;110147.66;;;3.77;100.00
3590;BME280;1809;48.470;9.226;2023-02-22T00:39:13;110489.34;;;3.78;100.00
3590;BME280;1809;48.470;9.226;2023-02-22T00:41:38;110481.13;;;3.73;100.00
3590;BME280;1809;48.470;9.226;2023-02-22T00:44:04;110494.81;;;3.81;100.00
3590;BME280;1809;48.470;9.226;2023-02-22T00:46:29;110145.84;;;3.76;100.00
3590;BME280;1809;48.470;9.226;2023-02-22T00:48:54;110138.56;;;3.72;100.00
3590;BME280;1809;48.470;9.226;2023-02-22T00:51:20;110471.03;;;3.68;100.00
3590;BME280;1809;48.470;9.226;2023-02-22T00:53:45;110809.06;;;3.67;100.00
3590;BME280;1809;48.470;9.226;2023-02-22T00:56:10;110803.56;;;3.64;100.00
3590;BME280;1809;48.470;9.226;2023-02-22T00:58:36;110799.84;;;3.62;100.00
3590;BME280;1809;48.470;9.226;2023-02-22T01:01:01;111852.78;;;3.80;100.00
3590;BME280;1809;48.470;9.226;2023-02-22T01:03:26;111848.16;;;3.77;100.00
3590;BME280;1809;48.470;9.226;2023-02-22T01:05:52;111835.19;;;3.70;100.00
3590;BME280;1809;48.470;9.226;2023-02-22T01:08:17;111828.72;;;3.67;100.00
3590;BME280;1809;48.470;9.226;2023-02-22T01:10:43;113551.38;;;3.79;100.00
3590;BME280;1809;48.470;9.226;2023-02-22T01:13:10;113222.47;;;3.85;100.00
3590;BME280;1809;48.470;9.226;2023-02-22T01:15:38;112523.56;;;3.75;100.00
3590;BME280;1809;48.470;9.226;2023-02-22T01:18:04;112865.50;;;3.76;100.00
3590;BME280;1809;48.470;9.226;2023-02-22T01:20:30;112534.72;;;3.81;100.00
3590;BME280;1809;48.470;9.226;2023-02-22T01:22:58;112179.81;;;3.73;100.00
3590;BME280;1809;48.470;9.226;2023-02-22T01:25:26;112512.38;;;3.69;100.00
3590;BME280;1809;48.470;9.226;2023-02-22T01:27:56;113538.19;;;3.72;100.00
3590;BME280;1809;48.470;9.226;2023-02-22T01:30:31;113526.91;;;3.66;100.00
3590;BME280;1809;48.470;9.226;2023-02-22T01:32:57;114209.06;;;3.67;100.00
3590;BME280;1809;48.470;9.226;2023-02-22T01:35:28;114205.28;;;3.65;100.00
3590;BME280;1809;48.470;9.226;2023-02-22T01:37:55;114545.44;;;3.65;100.00
3590;BME280;1809;48.470;9.226;2023-02-22T01:40:30;115224.00;;;3.64;100.00
3590;BME280;1809;48.470;9.226;2023-02-22T01:43:02;115568.09;;;3.66;100.00
3590;BME280;1809;48.470;9.226;2023-02-22T01:50:44;112924.41;;;4.08;100.00
3590;BME280;1809;48.470;9.226;2023-02-22T01:53:16;110842.09;;;3.85;100.00
3590;BME280;1809;48.470;9.226;2023-02-22T01:55:43;111520.16;;;3.84;100.00
3590;BME280;1809;48.470;9.226;2023-02-22T01:58:09;112562.69;;;3.96;100.00
3590;BME280;1809;48.470;9.226;2023-02-22T02:00:35;112555.25;;;3.92;100.00
3590;BME280;1809;48.470;9.226;2023-02-22T02:03:04;112544.97;;;3.87;100.00
3590;BME280;1809;48.470;9.226;2023-02-22T02:05:36;113235.63;;;3.92;100.00
3590;BME280;1809;48.470;9.226;2023-02-22T02:08:58;112553.38;;;3.91;100.00
3590;BME280;1809;48.470;9.226;2023-02-22T02:10:58;111509.09;;;3.78;100.00
3590;BME280;1809;48.470;9.226;2023-02-22T02:13:29;112186.31;;;3.76;100.00
3590;BME280;1809;48.470;9.226;2023-02-22T02:15:55;112508.66;;;3.67;100.00
3590;BME280;1809;48.470;9.226;2023-02-22T02:18:22;113189.63;;;3.67;100.00
3590;BME280;1809;48.470;9.226;2023-02-22T02:21:33;113535.41;;;3.70;100.00
3590;BME280;1809;48.470;9.226;2023-02-22T02:27:09;113520.31;;;3.62;100.00
3590;BME280;1809;48.470;9.226;2023-02-22T02:30:15;113517.53;;;3.61;100.00
3590;BME280;1809;48.470;9.226;2023-02-22T02:32:51;112809.38;;;3.46;100.00
3590;BME280;1809;48.470;9.226;2023-02-22T02:41:16;114823.78;;;3.32;100.00
3590;BME280;1809;48.470;9.226;2023-02-22T02:49:24;116847.16;;;3.23;100.00
3590;BME280;1809;48.470;9.226;2023-02-22T02:51:52;117517.81;;;3.18;100.00
3590;BME280;1809;48.470;9.226;2023-02-22T02:54:19;118201.25;;;3.19;100.00
3590;BME280;1809;48.470;9.226;2023-02-22T02:56:46;118876.00;;;3.16;100.00
3590;BME280;1809;48.470;9.226;2023-02-22T02:59:38;119550.78;;;3.13;100.00
3590;BME280;1809;48.470;9.226;2023-02-22T03:05:25;121252.13;;;3.13;100.00
3590;BME280;1809;48.470;9.226;2023-02-22T03:11:15;121923.19;;;3.08;100.00
3590;BME280;1809;48.470;9.226;2023-02-22T03:19:35;122931.81;;;3.01;100.00
3590;BME280;1809;48.470;9.226;2023-02-22T03:22:17;122917.50;;;2.94;100.00
3590;BME280;1809;48.470;9.226;2023-02-22T03:25:00;123248.91;;;2.90;100.00
3590;BME280;1809;48.470;9.226;2023-02-22T03:30:18;124265.72;;;2.87;100.00
3590;BME280;1809;48.470;9.226;2023-02-22T03:32:50;124974.22;;;3.00;100.00
3590;BME280;1809;48.470;9.226;2023-02-22T03:35:21;124276.09;;;2.92;100.00
3590;BME280;1809;48.470;9.226;2023-02-22T03:37:51;124267.81;;;2.88;100.00
3590;BME280;1809;48.470;9.226;2023-02-22T03:40:22;123912.69;;;2.81;100.00
3590;BME280;1809;48.470;9.226;2023-02-22T03:42:57;123903.47;;;2.77;100.00
3590;BME280;1809;48.470;9.226;2023-02-22T03:45:24;124602.31;;;2.85;100.00
3590;BME280;1809;48.470;9.226;2023-02-22T03:48:05;124587.81;;;2.78;100.00
3590;BME280;1809;48.470;9.226;2023-02-22T03:50:35;124226.50;;;2.68;100.00
3590;BME280;1809;48.470;9.226;2023-02-22T03:53:03;123853.03;;;2.52;100.00
3590;BME280;1809;48.470;9.226;2023-02-22T03:55:29;124520.56;;;2.45;100.00
3590;BME280;1809;48.470;9.226;2023-02-22T03:58:00;126247.53;;;2.57;100.00
3590;BME280;1809;48.470;9.226;2023-02-22T04:00:30;126548.28;;;2.38;100.00
3590;BME280;1809;48.470;9.226;2023-02-22T04:02:56;127910.06;;;2.37;100.00
3590;BME280;1809;48.470;9.226;2023-02-22T04:05:22;129272.31;;;2.37;100.00
3590;BME280;1809;48.470;9.226;2023-02-22T04:07:52;130282.16;;;2.31;100.00
3590;BME280;1809;48.470;9.226;2023-02-22T04:10:18;130946.75;;;2.23;100.00
3590;BME280;1809;48.470;9.226;2023-02-22T04:12:43;131610.16;;;2.14;100.00
3590;BME280;1809;48.470;9.226;2023-02-22T04:15:12;132273.50;;;2.05;100.00
3590;BME280;1809;48.470;9.226;2023-02-22T04:17:41;132958.91;;;2.07;100.00
3590;BME280;1809;48.470;9.226;2023-02-22T04:20:07;133644.50;;;2.08;100.00
3590;BME280;1809;48.470;9.226;2023-02-22T04:22:33;134331.38;;;2.10;100.00
3590;BME280;1809;48.470;9.226;2023-02-22T04:24:58;134681.63;;;2.14;100.00
3590;BME280;1809;48.470;9.226;2023-02-22T04:27:23;134674.88;;;2.11;100.00
3590;BME280;1809;48.470;9.226;2023-02-22T04:29:49;134670.38;;;2.09;100.00
3590;BME280;1809;48.470;9.226;2023-02-22T04:32:14;134323.53;;;2.07;100.00
3590;BME280;1809;48.470;9.226;2023-02-22T04:34:40;134328.00;;;2.09;100.00
3590;BME280;1809;48.470;9.226;2023-02-22T04:37:05;134324.66;;;2.07;100.00
3590;BME280;1809;48.470;9.226;2023-02-22T04:39:32;134315.69;;;2.03;100.00
3590;BME280;1809;48.470;9.226;2023-02-22T04:41:57;133967.81;;;2.00;100.00
3590;BME280;1809;48.470;9.226;2023-02-22T04:44:22;133613.31;;;1.94;100.00
3590;BME280;1809;48.470;9.226;2023-02-22T04:46:47;133958.88;;;1.96;100.00
3590;BME280;1809;48.470;9.226;2023-02-22T04:49:13;133957.78;;;1.96;100.00
3590;BME280;1809;48.470;9.226;2023-02-22T04:51:38;133965.56;;;1.99;100.00
3590;BME280;1809;48.470;9.226;2023-02-22T04:54:05;133965.56;;;1.99;100.00
3590;BME280;1809;48.470;9.226;2023-02-22T04:56:30;133622.25;;;1.98;100.00
3590;BME280;1809;48.470;9.226;2023-02-22T04:58:56;133633.34;;;2.03;100.00
3590;BME280;1809;48.470;9.226;2023-02-22T05:01:21;133270.03;;;1.93;100.00
3590;BME280;1809;48.470;9.226;2023-02-22T05:03:47;133265.59;;;1.91;100.00
3590;BME280;1809;48.470;9.226;2023-02-22T05:06:13;132915.72;;;1.87;100.00
3590;BME280;1809;48.470;9.226;2023-02-22T05:08:38;132919.06;;;1.89;100.00
3590;BME280;1809;48.470;9.226;2023-02-22T05:11:04;133281.16;;;1.98;100.00
3590;BME280;1809;48.470;9.226;2023-02-22T05:13:30;133640.03;;;2.06;100.00
3590;BME280;1809;48.470;9.226;2023-02-22T05:15:55;133314.44;;;2.13;100.00
3590;BME280;1809;48.470;9.226;2023-02-22T05:18:20;132962.25;;;2.08;100.00
3590;BME280;1809;48.470;9.226;2023-02-22T05:20:46;132610.09;;;2.03;100.00
3590;BME280;1809;48.470;9.226;2023-02-22T05:23:11;132255.84;;;1.97;100.00
3590;BME280;1809;48.470;9.226;2023-02-22T05:25:36;131906.09;;;1.93;100.00
3590;BME280;1809;48.470;9.226;2023-02-22T05:28:07;131556.47;;;1.89;100.00
3590;BME280;1809;48.470;9.226;2023-02-22T05:30:34;131901.72;;;1.91;100.00
3590;BME280;1809;48.470;9.226;2023-02-22T05:33:00;131554.28;;;1.88;100.00
3590;BME280;1809;48.470;9.226;2023-02-22T05:35:27;131899.50;;;1.90;100.00
3590;BME280;1809;48.470;9.226;2023-02-22T05:37:53;131903.94;;;1.92;100.00
3590;BME280;1809;48.470;9.226;2023-02-22T05:40:20;131565.22;;;1.93;100.00
3590;BME280;1809;48.470;9.226;2023-02-22T05:42:46;131569.63;;;1.95;100.00
3590;BME280;1809;48.470;9.226;2023-02-22T05:45:13;131576.19;;;1.98;100.00
3590;BME280;1809;48.470;9.226;2023-02-22T05:47:38;131229.84;;;1.96;100.00
3590;BME280;1809;48.470;9.226;2023-02-22T05:50:04;131229.84;;;1.96;100.00
3590;BME280;1809;48.470;9.226;2023-02-22T05:52:30;131236.41;;;1.99;100.00
3590;BME280;1809;48.470;9.226;2023-02-22T05:54:55;131236.41;;;1.99;100.00
3590;BME280;1809;48.470;9.226;2023-02-22T05:57:20;131244.00;;;2.02;100.00
3590;BME280;1809;48.470;9.226;2023-02-22T05:59:46;130894.44;;;1.98;100.00
3590;BME280;1809;48.470;9.226;2023-02-22T06:02:11;130899.88;;;2.01;100.00
3590;BME280;1809;48.470;9.226;2023-02-22T06:04:36;130909.69;;;2.05;100.00
3590;BME280;1809;48.470;9.226;2023-02-22T06:07:02;130911.84;;;2.06;100.00
3590;BME280;1809;48.470;9.226;2023-02-22T06:09:27;130559.03;;;2.01;100.00
3590;BME280;1809;48.470;9.226;2023-02-22T06:11:55;130568.84;;;2.05;100.00
3590;BME280;1809;48.470;9.226;2023-02-22T06:14:20;130573.16;;;2.07;100.00
3590;BME280;1809;48.470;9.226;2023-02-22T06:16:51;130232.31;;;2.07;100.00
3590;BME280;1809;48.470;9.226;2023-02-22T06:19:17;130223.63;;;2.03;100.00
3590;BME280;1809;48.470;9.226;2023-02-22T06:21:50;130242.06;;;2.12;100.00
3590;BME280;1809;48.470;9.226;2023-02-22T06:24:20;130249.66;;;2.15;100.00
3590;BME280;1809;48.470;9.226;2023-02-22T06:26:55;130251.84;;;2.16;100.00
3590;BME280;1809;48.470;9.226;2023-02-22T06:29:24;129919.63;;;2.21;100.00
3590;BME280;1809;48.470;9.226;2023-02-22T06:31:51;129939.09;;;2.30;100.00
3590;BME280;1809;48.470;9.226;2023-02-22T06:34:17;129600.31;;;2.31;100.00
3590;BME280;1809;48.470;9.226;2023-02-22T06:36:43;129615.41;;;2.38;100.00
3590;BME280;1809;48.470;9.226;2023-02-22T06:39:16;129283.09;;;2.42;100.00
3590;BME280;1809;48.470;9.226;2023-02-22T06:41:46;129303.53;;;2.51;100.00
3590;BME280;1809;48.470;9.226;2023-02-22T06:44:18;128989.41;;;2.64;100.00
3590;BME280;1809;48.470;9.226;2023-02-22T06:46:48;127987.72;;;2.74;100.00
3590;BME280;1809;48.470;9.226;2023-02-22T06:49:20;126991.31;;;2.87;100.00
3590;BME280;1809;48.470;9.226;2023-02-22T06:51:46;125287.97;;;2.87;100.00
3590;BME280;1809;48.470;9.226;2023-02-22T06:54:13;124282.28;;;2.95;100.00
3590;BME280;1809;48.470;9.226;2023-02-22T06:56:47;122597.28;;;3.04;100.00
3590;BME280;1809;48.470;9.226;2023-02-22T06:59:14;120904.56;;;3.09;100.00
3590;BME280;1809;48.470;9.226;2023-02-22T07:01:43;118539.59;;;3.18;100.00
3590;BME280;1809;48.470;9.226;2023-02-22T07:04:09;116498.25;;;3.18;100.00
3590;BME280;1809;48.470;9.226;2023-02-22T07:06:35;114112.56;;;3.15;100.00
3590;BME280;1809;48.470;9.226;2023-02-22T07:09:02;112430.38;;;3.24;100.00
3590;BME280;1809;48.470;9.226;2023-02-22T07:11:33;110411.63;;;3.35;100.00
3590;BME280;1809;48.470;9.226;2023-02-22T07:13:59;108382.53;;;3.40;100.00
3590;BME280;1809;48.470;9.226;2023-02-22T07:16:25;106356.97;;;3.46;100.00
3590;BME280;1809;48.470;9.226;2023-02-22T07:18:50;102969.16;;;3.48;100.00
3590;BME280;1809;48.470;9.226;2023-02-22T07:21:16;100265.09;;;3.52;100.00
3590;BME280;1809;48.470;9.226;2023-02-22T07:23:50;98596.28;;;3.67;100.00
3590;BME280;1809;48.470;9.226;2023-02-22T07:26:19;96585.69;;;3.80;100.00
3590;BME280;1809;48.470;9.226;2023-02-22T07:28:45;94235.47;;;3.92;100.00
3590;BME280;1809;48.470;9.226;2023-02-22T07:31:13;91199.81;;;3.98;100.00
3590;BME280;1809;48.470;9.226;2023-02-22T07:33:39;86828.75;;;4.13;100.00
3590;BME280;1809;48.470;9.226;2023-02-22T07:36:05;82128.41;;;4.31;100.00
3590;BME280;1809;48.470;9.226;2023-02-22T07:38:31;77751.44;;;4.37;100.00
3590;BME280;1809;48.470;9.226;2023-02-22T07:40:59;73381.13;;;4.43;100.00
3590;BME280;1809;48.470;9.226;2023-02-22T07:43:27;71359.19;;;4.41;100.00
3590;BME280;1809;48.470;9.226;2023-02-22T07:45:58;70715.41;;;4.66;100.00
3590;BME280;1809;48.470;9.226;2023-02-22T07:48:26;67355.75;;;4.69;100.00
3590;BME280;1809;48.470;9.226;2023-02-22T07:50:56;67705.19;;;4.81;100.00
3590;BME280;1809;48.470;9.226;2023-02-22T07:53:30;67717.38;;;4.92;100.00
3590;BME280;1809;48.470;9.226;2023-02-22T07:55:57;66046.47;;;5.02;100.00
3590;BME280;1809;48.470;9.226;2023-02-22T07:58:25;61004.72;;;4.99;100.00
3590;BME280;1809;48.470;9.226;2023-02-22T08:00:51;59328.16;;;5.01;100.00
3590;BME280;1809;48.470;9.226;2023-02-22T08:03:18;56978.84;;;4.99;100.00
3590;BME280;1809;48.470;9.226;2023-02-22T08:05:46;54637.06;;;5.04;100.00
3590;BME280;1809;48.470;9.226;2023-02-22T08:08:12;54314.38;;;5.18;100.00
3590;BME280;1809;48.470;9.226;2023-02-22T08:10:42;51646.09;;;5.32;100.00
3590;BME280;1809;48.470;9.226;2023-02-22T08:13:08;46619.63;;;5.24;100.00
3590;BME280;1809;48.470;9.226;2023-02-22T08:15:36;44954.22;;;5.33;100.00
3590;BME280;1809;48.470;9.226;2023-02-22T08:18:05;44286.06;;;5.33;100.00
3590;BME280;1809;48.470;9.226;2023-02-22T08:20:33;42278.59;;;5.29;100.00
3590;BME280;1809;48.470;9.226;2023-02-22T08:22:59;44612.00;;;5.22;100.00
3590;BME280;1809;48.470;9.226;2023-02-22T08:25:27;42947.38;;;5.30;100.00
3590;BME280;1809;48.470;9.226;2023-02-22T08:27:57;45957.59;;;5.33;100.00
3590;BME280;1809;48.470;9.226;2023-02-22T08:30:26;48978.75;;;5.47;100.00
3590;BME280;1809;48.470;9.226;2023-02-22T08:32:52;47656.97;;;5.69;100.00
3590;BME280;1809;48.470;9.226;2023-02-22T08:35:21;42635.34;;;5.63;100.00
3590;BME280;1809;48.470;9.226;2023-02-22T08:37:53;36631.31;;;5.74;100.00
3590;BME280;1809;48.470;9.226;2023-02-22T08:40:22;32960.75;;;5.70;100.00
3590;BME280;1809;48.470;9.226;2023-02-22T08:42:48;31633.69;;;5.81;100.00
3590;BME280;1809;48.470;9.226;2023-02-22T08:45:17;31638.25;;;5.90;100.00
3590;BME280;1809;48.470;9.226;2023-02-22T08:47:45;27980.28;;;6.04;100.00
3590;BME280;1809;48.470;9.226;2023-02-22T08:50:22;26657.13;;;6.24;100.00
3590;BME280;1809;48.470;9.226;2023-02-22T08:52:57;22666.53;;;6.31;100.00
3590;BME280;1809;48.470;9.226;2023-02-22T08:55:26;17353.16;;;6.46;100.00
3590;BME280;1809;48.470;9.226;2023-02-22T08:57:52;13040.22;;;6.57;100.00
3590;BME280;1809;48.470;9.226;2023-02-22T09:00:19;12712.53;;;6.78;100.00
3590;BME280;1809;48.470;9.226;2023-02-22T09:02:45;9728.91;;;6.89;100.00
3590;BME280;1809;48.470;9.226;2023-02-22T09:05:11;-2517.94;;;6.90;100.00
3590;BME280;1809;48.470;9.226;2023-02-22T09:07:40;-7832.41;;;7.20;100.00
3590;BME280;1809;48.470;9.226;2023-02-22T09:10:14;-16379.91;;;7.56;100.00
3590;BME280;1809;48.470;9.226;2023-02-22T09:12:40;-16383.56;;;7.70;100.00
3590;BME280;1809;48.470;9.226;2023-02-22T09:15:07;-16385.13;;;7.75;100.00
3590;BME280;1809;48.470;9.226;2023-02-22T09:17:33;-16388.91;;;7.89;100.00
3590;BME280;1809;48.470;9.226;2023-02-22T09:20:05;-16390.75;;;7.95;100.00
3590;BME280;1809;48.470;9.226;2023-02-22T09:22:31;-16394.25;;;8.08;100.00
3590;BME280;1809;48.470;9.226;2023-02-22T09:24:57;-16399.31;;;8.26;100.00
3590;BME280;1809;48.470;9.226;2023-02-22T09:27:23;-16401.00;;;8.32;100.00
3590;BME280;1809;48.470;9.226;2023-02-22T09:29:52;-16402.69;;;8.38;100.00
3590;BME280;1809;48.470;9.226;2023-02-22T09:32:18;-16408.59;;;8.59;100.00
3590;BME280;1809;48.470;9.226;2023-02-22T09:34:45;-16405.50;;;8.48;100.00
3590;BME280;1809;48.470;9.226;2023-02-22T09:37:12;-16406.34;;;8.51;100.00
3590;BME280;1809;48.470;9.226;2023-02-22T09:39:38;-16409.03;;;8.61;100.00
3590;BME280;1809;48.470;9.226;2023-02-22T09:45:05;-16413.38;;;8.77;100.00
3590;BME280;1809;48.470;9.226;2023-02-22T09:47:58;-16419.41;;;8.98;100.00
3590;BME280;1809;48.470;9.226;2023-02-22T09:50:34;-16420.97;;;9.04;100.00
3590;BME280;1809;48.470;9.226;2023-02-22T09:55:46;-16423.22;;;9.12;100.00
3590;BME280;1809;48.470;9.226;2023-02-22T10:03:59;-16429.25;;;9.34;100.00
3590;BME280;1809;48.470;9.226;2023-02-22T10:06:25;-16438.09;;;9.65;100.00
3590;BME280;1809;48.470;9.226;2023-02-22T10:08:52;-16437.00;;;9.61;100.00
3590;BME280;1809;48.470;9.226;2023-02-22T10:14:37;-16455.81;;;10.29;100.00
3590;BME280;1809;48.470;9.226;2023-02-22T10:20:29;-16460.16;;;10.45;100.00
3590;BME280;1809;48.470;9.226;2023-02-22T10:23:31;-16468.88;;;10.76;100.00
3590;BME280;1809;48.470;9.226;2023-02-22T10:26:24;-16475.63;;;11.00;100.00
3590;BME280;1809;48.470;9.226;2023-02-22T10:31:45;-16496.81;;;11.76;100.00
3590;BME280;1809;48.470;9.226;2023-02-22T10:34:19;-16495.28;;;11.71;100.00
3590;BME280;1809;48.470;9.226;2023-02-22T10:36:53;-16499.06;;;11.84;100.00
3590;BME280;1809;48.470;9.226;2023-02-22T10:39:33;-16502.56;;;11.97;100.00
3590;BME280;1809;48.470;9.226;2023-02-22T10:42:03;-16512.53;;;12.33;100.00
3590;BME280;1809;48.470;9.226;2023-02-22T10:44:37;-16518.16;;;12.53;100.00
3590;BME280;1809;48.470;9.226;2023-02-22T10:47:13;-16523.75;;;12.73;100.00
3590;BME280;1809;48.470;9.226;2023-02-22T10:49:47;-16525.88;;;12.81;100.00
3590;BME280;1809;48.470;9.226;2023-02-22T10:52:31;-16531.63;;;13.02;100.00
3590;BME280;1809;48.470;9.226;2023-02-22T10:54:59;-16527.97;;;12.88;100.00
3590;BME280;1809;48.470;9.226;2023-02-22T10:57:28;-16536.25;;;13.18;100.00
3590;BME280;1809;48.470;9.226;2023-02-22T10:59:56;-16529.09;;;12.92;100.00
3590;BME280;1809;48.470;9.226;2023-02-22T11:02:34;-16535.13;;;13.14;100.00
3590;BME280;1809;48.470;9.226;2023-02-22T11:05:01;-16534.72;;;13.13;100.00
3590;BME280;1809;48.470;9.226;2023-02-22T11:07:33;-16548.31;;;13.62;100.00
3590;BME280;1809;48.470;9.226;2023-02-22T11:10:05;-16549.88;;;13.67;100.00
3590;BME280;1809;48.470;9.226;2023-02-22T11:12:35;-16542.28;;;13.40;100.00
3590;BME280;1809;48.470;9.226;2023-02-22T11:17:44;-16541.16;;;13.36;100.00
3590;BME280;1809;48.470;9.226;2023-02-22T11:20:21;-16541.72;;;13.38;100.00
3590;BME280;1809;48.470;9.226;2023-02-22T11:22:51;-16544.81;;;13.49;100.00
3590;BME280;1809;48.470;9.226;2023-02-22T11:25:21;-16540.59;;;13.34;100.00
3590;BME280;1809;48.470;9.226;2023-02-22T11:27:47;-16548.19;;;13.61;100.00
3590;BME280;1809;48.470;9.226;2023-02-22T11:30:26;-16545.38;;;13.51;100.00
3590;BME280;1809;48.470;9.226;2023-02-22T11:37:52;-16569.22;;;14.37;100.00
3590;BME280;1809;48.470;9.226;2023-02-22T11:40:20;-16570.91;;;14.43;100.00
3590;BME280;1809;48.470;9.226;2023-02-22T11:43:09;-16570.75;;;14.42;100.00
3590;BME280;1809;48.470;9.226;2023-02-22T11:45:38;-16580.00;;;14.76;100.00
3590;BME280;1809;48.470;9.226;2023-02-22T11:48:06;-16581.56;;;14.81;100.00
3590;BME280;1809;48.470;9.226;2023-02-22T11:50:38;-16579.16;;;14.73;100.00
3590;BME280;1809;48.470;9.226;2023-02-22T11:53:28;-16590.09;;;15.12;100.00
3590;BME280;1809;48.470;9.226;2023-02-22T11:56:24;-16593.06;;;15.23;100.00
3590;BME280;1809;48.470;9.226;2023-02-22T11:59:15;-16598.09;;;15.41;100.00
3590;BME280;1809;48.470;9.226;2023-02-22T12:12:38;-16608.59;;;15.79;100.00
3590;BME280;1809;48.470;9.226;2023-02-22T12:15:22;-16609.59;;;15.82;100.00
3590;BME280;1809;48.470;9.226;2023-02-22T12:20:39;-16610.72;;;15.86;100.00
3590;BME280;1809;48.470;9.226;2023-02-22T12:23:41;-16613.78;;;15.97;100.00
3590;BME280;1809;48.470;9.226;2023-02-22T12:26:13;-16616.88;;;16.08;100.00
3590;BME280;1809;48.470;9.226;2023-02-22T12:28:45;-16612.09;;;15.91;100.00
3590;BME280;1809;48.470;9.226;2023-02-22T12:34:11;-16614.91;;;16.01;100.00
3590;BME280;1809;48.470;9.226;2023-02-22T12:36:46;-16613.66;;;15.97;100.00
3590;BME280;1809;48.470;9.226;2023-02-22T12:44:58;-16604.41;;;15.64;100.00
3590;BME280;1809;48.470;9.226;2023-02-22T12:47:31;-16605.94;;;15.69;100.00
3590;BME280;1809;48.470;9.226;2023-02-22T12:50:05;-16594.03;;;15.26;100.00
3590;BME280;1809;48.470;9.226;2023-02-22T12:52:59;-16594.72;;;15.29;100.00
3590;BME280;1809;48.470;9.226;2023-02-22T12:55:28;-16601.47;;;15.53;100.00
3590;BME280;1809;48.470;9.226;2023-02-22T12:58:04;-16600.75;;;15.50;100.00
3590;BME280;1809;48.470;9.226;2023-02-22T13:00:56;-16599.91;;;15.47;100.00
3590;BME280;1809;48.470;9.226;2023-02-22T13:03:36;-16602.72;;;15.57;100.00
3590;BME280;1809;48.470;9.226;2023-02-22T13:09:15;-16596.69;;;15.36;100.00
3590;BME280;1809;48.470;9.226;2023-02-22T13:19:54;-16591.78;;;15.18;100.00
3590;BME280;1809;48.470;9.226;2023-02-22T13:25:13;-16589.97;;;15.12;100.00
3590;BME280;1809;48.470;9.226;2023-02-22T13:30:39;-16591.09;;;15.16;100.00
3590;BME280;1809;48.470;9.226;2023-02-22T13:33:12;-16588.56;;;15.06;100.00
3590;BME280;1809;48.470;9.226;2023-02-22T13:36:07;-16591.38;;;15.17;100.00
3590;BME280;1809;48.470;9.226;2023-02-22T13:39:18;-16599.22;;;15.45;100.00
3590;BME280;1809;48.470;9.226;2023-02-22T13:42:07;-16592.22;;;15.20;100.00
3590;BME280;1809;48.470;9.226;2023-02-22T13:52:59;-16591.38;;;15.17;100.00
3590;BME280;1809;48.470;9.226;2023-02-22T13:55:31;-16591.94;;;15.19;100.00
3590;BME280;1809;48.470;9.226;2023-02-22T13:58:06;-16598.22;;;15.41;100.00
3590;BME280;1809;48.470;9.226;2023-02-22T14:13:08;-16606.50;;;15.71;100.00
3590;BME280;1809;48.470;9.226;2023-02-22T14:15:33;-16606.22;;;15.70;100.00
3590;BME280;1809;48.470;9.226;2023-02-22T14:18:04;-16609.88;;;15.83;100.00
3590;BME280;1809;48.470;9.226;2023-02-22T14:20:37;-16612.25;;;15.92;100.00
3590;BME280;1809;48.470;9.226;2023-02-22T14:23:27;-16604.41;;;15.64;100.00
3590;BME280;1809;48.470;9.226;2023-02-22T14:25:54;-16608.75;;;15.79;100.00
3590;BME280;1809;48.470;9.226;2023-02-22T14:28:37;-16608.19;;;15.77;100.00
3590;BME280;1809;48.470;9.226;2023-02-22T14:31:34;-16604.41;;;15.64;100.00
3590;BME280;1809;48.470;9.226;2023-02-22T14:34:02;-16606.66;;;15.72;100.00
3590;BME280;1809;48.470;9.226;2023-02-22T14:36:35;-16602.59;;;15.57;100.00
3590;BME280;1809;48.470;9.226;2023-02-22T14:39:26;-16598.38;;;15.42;100.00
3590;BME280;1809;48.470;9.226;2023-02-22T14:44:30;-16608.75;;;15.79;100.00
3590;BME280;1809;48.470;9.226;2023-02-22T14:46:58;-16612.41;;;15.92;100.00
3590;BME280;1809;48.470;9.226;2023-02-22T14:49:31;-16607.63;;;15.75;100.00
3590;BME280;1809;48.470;9.226;2023-02-22T14:52:05;-16603.16;;;15.59;100.00
3590;BME280;1809;48.470;9.226;2023-02-22T14:54:54;-16600.91;;;15.51;100.00
3590;BME280;1809;48.470;9.226;2023-02-22T14:57:27;-16595.28;;;15.31;100.00
3590;BME280;1809;48.470;9.226;2023-02-22T15:00:12;-16598.50;;;15.42;100.00
3590;BME280;1809;48.470;9.226;2023-02-22T15:02:45;-16595.72;;;15.32;100.00
3590;BME280;1809;48.470;9.226;2023-02-22T15:05:13;-16587.44;;;15.02;100.00
3590;BME280;1809;48.470;9.226;2023-02-22T15:07:39;-16590.81;;;15.15;100.00
3590;BME280;1809;48.470;9.226;2023-02-22T15:10:21;-16596.69;;;15.36;100.00
3590;BME280;1809;48.470;9.226;2023-02-22T15:12:58;-16592.78;;;15.22;100.00
3590;BME280;1809;48.470;9.226;2023-02-22T15:15:34;-16592.78;;;15.22;100.00
3590;BME280;1809;48.470;9.226;2023-02-22T15:18:00;-16587.44;;;15.02;100.00
3590;BME280;1809;48.470;9.226;2023-02-22T15:20:25;-16581.56;;;14.81;100.00
3590;BME280;1809;48.470;9.226;2023-02-22T15:22:57;-16581.13;;;14.80;100.00
3590;BME280;1809;48.470;9.226;2023-02-22T15:25:27;-16580.28;;;14.77;100.00
3590;BME280;1809;48.470;9.226;2023-02-22T15:27:53;-16582.69;;;14.85;100.00
3590;BME280;1809;48.470;9.226;2023-02-22T15:30:26;-16576.78;;;14.64;100.00
3590;BME280;1809;48.470;9.226;2023-02-22T15:32:53;-16577.22;;;14.66;100.00